Time;durP1;ratioP1;P1;durP2;ratioP2;P2;SDS_P1;SDS_P2;PMS_P1;PMS_P2;Temp;Humidity;BMP_temperature;BMP_pressure;BME280_temperature;BME280_humidity;BME280_pressure;Samples;Min_cycle;Max_cycle;Signal;HPM_P1;HPM_P2
2022/08/26 00:02:10;;;;;;;13.83;9.60;;;24.20;64.70;;;;;;5059033;28;20574;-80
2022/08/26 00:04:38;;;;;;;18.23;8.73;;;24.20;64.80;;;;;;5075546;28;20450;-81
2022/08/26 00:07:08;;;;;;;14.20;8.80;;;24.10;64.80;;;;;;5078629;28;20498;-80
2022/08/26 00:09:36;;;;;;;11.87;8.40;;;24.10;64.80;;;;;;5059227;28;20466;-80
2022/08/26 00:12:08;;;;;;;12.30;8.30;;;24.10;64.80;;;;;;5074743;28;20602;-81
2022/08/26 00:14:39;;;;;;;12.30;8.77;;;24.10;64.80;;;;;;5060328;28;20870;-80
2022/08/26 00:17:08;;;;;;;14.17;9.50;;;24.10;64.90;;;;;;5062978;28;20865;-80
2022/08/26 00:19:36;;;;;;;12.07;8.63;;;24.00;64.90;;;;;;5077141;28;20832;-81
2022/08/26 00:22:05;;;;;;;13.27;9.00;;;24.00;64.90;;;;;;5080092;28;20549;-81
2022/08/26 00:24:34;;;;;;;15.67;8.93;;;24.00;64.90;;;;;;5079491;28;20446;-80
2022/08/26 00:27:02;;;;;;;14.57;9.27;;;24.00;64.90;;;;;;5076221;28;20498;-81
2022/08/26 00:29:33;;;;;;;12.23;8.73;;;24.00;65.00;;;;;;5061037;28;20464;-81
2022/08/26 00:32:05;;;;;;;12.20;8.87;;;23.90;65.10;;;;;;5060188;28;20964;-80
2022/08/26 00:34:35;;;;;;;18.10;9.67;;;23.90;65.20;;;;;;5078716;28;20461;-80
2022/08/26 00:37:03;;;;;;;14.90;9.77;;;23.90;65.20;;;;;;5081142;28;20465;-81
2022/08/26 00:39:38;;;;;;;13.00;8.93;;;23.90;65.30;;;;;;5077972;28;20461;-80
2022/08/26 00:42:06;;;;;;;16.50;10.07;;;23.80;65.30;;;;;;5076559;28;20451;-80
2022/08/26 00:44:34;;;;;;;16.07;9.80;;;23.80;65.40;;;;;;5079610;28;20963;-80
2022/08/26 00:47:05;;;;;;;16.23;10.43;;;23.80;65.40;;;;;;5081913;28;21386;-81
2022/08/26 00:49:38;;;;;;;14.83;9.30;;;23.80;65.50;;;;;;5096783;28;20819;-79
2022/08/26 00:52:09;;;;;;;13.50;8.93;;;23.80;65.40;;;;;;5077782;28;20450;-82
2022/08/26 00:54:46;;;;;;;15.10;9.53;;;23.80;65.50;;;;;;5080133;28;20480;-81
2022/08/26 00:57:18;;;;;;;16.10;10.23;;;23.70;65.50;;;;;;5093525;28;20589;-81
2022/08/26 00:59:51;;;;;;;15.43;9.80;;;23.60;65.60;;;;;;5082097;28;20452;-80
2022/08/26 01:02:19;;;;;;;13.63;9.53;;;23.50;65.70;;;;;;5080523;28;20450;-80
2022/08/26 01:04:50;;;;;;;12.07;8.70;;;23.40;65.90;;;;;;5076362;28;21176;-81
2022/08/26 01:07:24;;;;;;;17.53;9.07;;;23.40;66.00;;;;;;5077920;28;20520;-80
2022/08/26 01:09:53;;;;;;;14.13;9.27;;;23.50;66.10;;;;;;5063218;28;20482;-80
2022/08/26 01:12:24;;;;;;;12.87;8.90;;;23.50;66.00;;;;;;5081209;28;20841;-78
2022/08/26 01:14:52;;;;;;;14.10;9.50;;;23.50;66.00;;;;;;5084562;28;21295;-79
2022/08/26 01:17:20;;;;;;;14.33;9.40;;;23.50;66.00;;;;;;5086772;28;20477;-80
2022/08/26 01:19:52;;;;;;;13.77;10.00;;;23.40;66.00;;;;;;5084728;28;20467;-80
2022/08/26 01:22:25;;;;;;;13.87;9.77;;;23.40;66.10;;;;;;5083206;28;20508;-81
2022/08/26 01:25:00;;;;;;;14.07;9.90;;;23.40;66.20;;;;;;5084996;28;20446;-80
2022/08/26 01:27:31;;;;;;;14.93;10.00;;;23.30;66.30;;;;;;5084362;28;20486;-80
2022/08/26 01:30:01;;;;;;;15.23;10.70;;;23.30;66.30;;;;;;5087748;28;20445;-81
2022/08/26 01:32:31;;;;;;;14.47;9.63;;;23.30;66.30;;;;;;5085056;28;21424;-80
2022/08/26 01:35:00;;;;;;;12.83;10.00;;;23.30;66.20;;;;;;5086196;28;20841;-79
2022/08/26 01:37:35;;;;;;;15.20;10.67;;;23.20;66.20;;;;;;5082209;28;20481;-80
2022/08/26 01:40:07;;;;;;;13.20;9.80;;;23.20;66.20;;;;;;5084338;28;20965;-80
2022/08/26 01:42:35;;;;;;;16.63;9.93;;;23.10;66.30;;;;;;5066285;28;20460;-80
2022/08/26 01:45:09;;;;;;;15.73;10.43;;;23.10;66.50;;;;;;5085218;28;20469;-79
2022/08/26 01:47:38;;;;;;;13.63;9.83;;;23.00;66.50;;;;;;5064878;28;20506;-81
2022/08/26 01:50:12;;;;;;;14.10;9.63;;;23.00;66.50;;;;;;5084535;28;21087;-79
2022/08/26 01:52:55;;;;;;;14.80;10.20;;;23.00;66.60;;;;;;5080960;28;20470;-82
2022/08/26 01:55:26;;;;;;;16.00;9.90;;;22.90;66.70;;;;;;5082571;28;20490;-81
2022/08/26 01:58:04;;;;;;;14.73;9.90;;;22.90;66.90;;;;;;5086206;28;21040;-80
2022/08/26 02:00:33;;;;;;;12.93;10.23;;;22.90;66.90;;;;;;5083781;28;20476;-80
2022/08/26 02:03:16;;;;;;;14.00;10.77;;;22.90;66.90;;;;;;5086758;28;20455;-81
2022/08/26 02:05:46;;;;;;;12.33;9.20;;;23.00;67.00;;;;;;5084942;28;20446;-80
2022/08/26 02:08:18;;;;;;;15.00;10.77;;;22.90;66.90;;;;;;5088003;28;20477;-80
2022/08/26 02:10:54;;;;;;;15.53;10.00;;;22.90;66.90;;;;;;5092279;28;20474;-80
2022/08/26 02:13:26;;;;;;;15.50;9.60;;;22.90;66.90;;;;;;5090865;28;20445;-80
2022/08/26 02:15:55;;;;;;;15.50;9.50;;;22.90;66.80;;;;;;5089619;28;20827;-80
2022/08/26 02:18:25;;;;;;;15.30;10.17;;;22.80;66.90;;;;;;5086009;28;20508;-79
2022/08/26 02:20:55;;;;;;;14.07;10.13;;;22.80;66.90;;;;;;5087973;28;20456;-80
2022/08/26 02:23:24;;;;;;;15.20;9.20;;;22.80;67.00;;;;;;5085714;28;20460;-81
2022/08/26 02:25:59;;;;;;;15.30;10.00;;;22.80;67.10;;;;;;5084597;28;20451;-80
2022/08/26 02:28:31;;;;;;;17.37;10.10;;;22.80;67.10;;;;;;5072378;28;20466;-81
2022/08/26 02:30:59;;;;;;;15.50;10.57;;;22.70;67.10;;;;;;5087481;28;20806;-80
2022/08/26 02:33:29;;;;;;;13.37;10.30;;;22.70;67.00;;;;;;5068595;28;20504;-81
2022/08/26 02:35:57;;;;;;;19.63;10.70;;;22.70;67.00;;;;;;5086726;28;20458;-80
2022/08/26 02:38:26;;;;;;;14.40;9.93;;;22.60;67.10;;;;;;5086654;28;20475;-80
2022/08/26 02:40:55;;;;;;;14.30;9.93;;;22.60;67.10;;;;;;5087072;28;20482;-81
2022/08/26 02:43:24;;;;;;;15.73;9.87;;;22.60;67.10;;;;;;5086275;28;20455;-80
2022/08/26 02:46:00;;;;;;;13.53;10.90;;;22.50;67.00;;;;;;5086431;28;20458;-80
2022/08/26 02:48:29;;;;;;;18.97;10.30;;;22.40;67.00;;;;;;5064339;28;20471;-81
2022/08/26 02:50:59;;;;;;;14.07;10.47;;;22.30;66.90;;;;;;5085851;28;20450;-79
2022/08/26 02:53:27;;;;;;;14.33;10.20;;;22.20;67.10;;;;;;5068416;28;20470;-81
2022/08/26 02:56:00;;;;;;;22.33;10.50;;;22.10;67.30;;;;;;5085238;28;20453;-82
2022/08/26 02:58:30;;;;;;;13.87;10.27;;;22.00;67.40;;;;;;5086341;28;20449;-82
2022/08/26 03:00:57;;;;;;;13.97;10.20;;;21.90;67.60;;;;;;5086752;28;20453;-80
2022/08/26 03:03:26;;;;;;;18.90;10.67;;;21.90;67.90;;;;;;5084905;28;20461;-81
2022/08/26 03:05:54;;;;;;;21.30;11.23;;;22.00;68.00;;;;;;5081565;28;20939;-80
2022/08/26 03:08:22;;;;;;;14.37;9.13;;;22.00;68.10;;;;;;5083377;28;20500;-81
2022/08/26 03:10:52;;;;;;;15.87;10.30;;;22.00;68.10;;;;;;5083414;28;20461;-81
2022/08/26 03:13:21;;;;;;;21.13;10.30;;;22.10;68.10;;;;;;5081728;28;20464;-82
2022/08/26 03:15:49;;;;;;;14.23;9.60;;;22.10;68.10;;;;;;5083569;28;20455;-82
2022/08/26 03:18:17;;;;;;;15.30;10.90;;;22.10;68.10;;;;;;5084687;28;20482;-80
2022/08/26 03:20:47;;;;;;;15.00;11.20;;;22.10;68.10;;;;;;5086203;28;20461;-80
2022/08/26 03:23:15;;;;;;;16.63;10.77;;;22.10;68.00;;;;;;5083423;28;20471;-82
2022/08/26 03:25:49;;;;;;;15.20;9.93;;;22.00;68.10;;;;;;5084576;28;20617;-81
2022/08/26 03:28:17;;;;;;;14.10;9.90;;;22.00;68.10;;;;;;5082934;28;20591;-79
2022/08/26 03:30:47;;;;;;;14.47;9.37;;;22.00;68.20;;;;;;5082016;28;20796;-81
2022/08/26 03:33:16;;;;;;;13.70;10.23;;;22.00;68.20;;;;;;5083547;28;21029;-80
2022/08/26 03:35:46;;;;;;;17.37;9.87;;;22.00;68.20;;;;;;5086162;28;20450;-81
2022/08/26 03:38:14;;;;;;;19.37;11.00;;;22.00;68.10;;;;;;5081030;28;20482;-80
2022/08/26 03:40:43;;;;;;;15.93;10.47;;;22.10;68.00;;;;;;5083370;28;20452;-80
2022/08/26 03:43:12;;;;;;;17.23;10.73;;;22.00;68.00;;;;;;5081629;28;20461;-81
2022/08/26 03:45:40;;;;;;;16.80;11.03;;;22.00;68.10;;;;;;5084884;28;20457;-79
2022/08/26 03:48:11;;;;;;;14.53;11.00;;;22.00;68.00;;;;;;5082493;28;20886;-82
2022/08/26 03:50:39;;;;;;;16.70;11.10;;;21.90;68.00;;;;;;5080432;28;20537;-81
2022/08/26 03:53:07;;;;;;;18.50;10.53;;;21.90;68.00;;;;;;5080054;28;20815;-79
2022/08/26 03:55:40;;;;;;;15.20;11.23;;;21.80;68.00;;;;;;5079464;28;20457;-82
2022/08/26 03:58:08;;;;;;;15.20;10.60;;;21.80;68.20;;;;;;5063689;28;20527;-77
2022/08/26 04:00:36;;;;;;;14.63;10.30;;;21.80;68.40;;;;;;5078422;28;20454;-75
2022/08/26 04:03:04;;;;;;;14.43;10.33;;;21.90;68.30;;;;;;5075066;28;20462;-75
2022/08/26 04:05:38;;;;;;;15.73;11.43;;;21.80;68.40;;;;;;5075334;28;20458;-76
2022/08/26 04:08:06;;;;;;;18.33;10.37;;;21.80;68.30;;;;;;5076611;28;20473;-77
2022/08/26 04:10:37;;;;;;;17.40;11.47;;;21.80;68.40;;;;;;5073631;28;20450;-76
2022/08/26 04:13:05;;;;;;;14.63;10.43;;;21.80;68.50;;;;;;5069452;28;20549;-76
2022/08/26 04:15:34;;;;;;;15.10;10.67;;;21.80;68.50;;;;;;5075087;28;20461;-76
2022/08/26 04:18:03;;;;;;;15.30;10.87;;;21.80;68.50;;;;;;5078472;28;20471;-77
2022/08/26 04:20:30;;;;;;;16.50;11.37;;;21.80;68.50;;;;;;5077715;28;20500;-76
2022/08/26 04:23:00;;;;;;;16.40;10.53;;;21.80;68.50;;;;;;5074229;28;20464;-76
2022/08/26 04:25:28;;;;;;;16.00;10.73;;;21.80;68.60;;;;;;5070085;28;20442;-75
2022/08/26 04:27:56;;;;;;;13.00;9.50;;;21.80;68.50;;;;;;5076714;28;21014;-75
2022/08/26 04:30:24;;;;;;;21.10;11.07;;;21.80;68.50;;;;;;5075432;28;20458;-76
2022/08/26 04:32:52;;;;;;;16.03;10.50;;;21.80;68.50;;;;;;5071153;28;20452;-75
2022/08/26 04:35:20;;;;;;;16.13;11.00;;;21.80;68.50;;;;;;5075640;28;20829;-76
2022/08/26 04:37:54;;;;;;;13.87;10.00;;;21.70;68.50;;;;;;5071077;28;20477;-77
2022/08/26 04:40:26;;;;;;;15.13;10.47;;;21.70;68.50;;;;;;5072224;28;20484;-77
2022/08/26 04:42:54;;;;;;;14.27;10.80;;;21.70;68.50;;;;;;5071946;28;20474;-77
2022/08/26 04:45:23;;;;;;;15.37;11.57;;;21.70;68.50;;;;;;5074313;28;21006;-77
2022/08/26 04:47:55;;;;;;;14.73;11.63;;;21.70;68.50;;;;;;5074958;28;20471;-77
2022/08/26 04:50:25;;;;;;;16.20;10.83;;;21.70;68.60;;;;;;5075979;28;20466;-77
2022/08/26 04:52:54;;;;;;;15.00;11.03;;;21.70;68.50;;;;;;5078073;28;21350;-76
2022/08/26 04:55:24;;;;;;;15.47;11.60;;;21.70;68.60;;;;;;5079093;28;20894;-77
2022/08/26 04:58:07;;;;;;;15.93;11.50;;;21.70;68.60;;;;;;5080320;28;20511;-77
2022/08/26 05:00:37;;;;;;;15.40;10.10;;;21.70;68.60;;;;;;5077108;28;20489;-76
2022/08/26 05:03:06;;;;;;;21.20;11.50;;;21.70;68.70;;;;;;5078702;28;20460;-77
2022/08/26 05:05:39;;;;;;;22.17;11.63;;;21.70;68.60;;;;;;5078389;28;21120;-76
2022/08/26 05:08:08;;;;;;;20.17;11.90;;;21.70;68.70;;;;;;5081529;28;20496;-76
2022/08/26 05:10:44;;;;;;;18.00;11.60;;;21.80;69.00;;;;;;5080248;28;20548;-77
2022/08/26 05:13:12;;;;;;;16.93;10.80;;;22.00;69.10;;;;;;5080199;28;20810;-77
2022/08/26 05:15:43;;;;;;;18.10;11.20;;;22.30;68.90;;;;;;5081785;28;21072;-76
2022/08/26 05:18:12;;;;;;;15.70;10.33;;;22.70;68.70;;;;;;5061867;28;20475;-77
2022/08/26 05:20:44;;;;;;;19.07;11.17;;;23.00;68.30;;;;;;5072881;28;21337;-77
2022/08/26 05:23:14;;;;;;;14.87;10.07;;;23.40;68.00;;;;;;5059763;28;20638;-76
2022/08/26 05:25:46;;;;;;;15.80;10.73;;;23.90;67.50;;;;;;5077504;28;20451;-76
2022/08/26 05:28:16;;;;;;;16.93;12.00;;;24.30;67.00;;;;;;5078786;28;20466;-76
2022/08/26 05:30:44;;;;;;;16.33;10.87;;;24.70;66.40;;;;;;5077886;28;21157;-77
2022/08/26 05:33:13;;;;;;;16.43;11.97;;;25.20;65.80;;;;;;5072127;28;21029;-76
2022/08/26 05:35:42;;;;;;;19.47;11.90;;;25.70;65.00;;;;;;5074843;28;20455;-76
2022/08/26 05:38:14;;;;;;;24.20;12.40;;;26.20;64.30;;;;;;5077745;28;21431;-76
2022/08/26 05:40:46;;;;;;;18.27;10.20;;;26.80;63.50;;;;;;5081823;28;20455;-76
2022/08/26 05:43:14;;;;;;;15.10;10.87;;;27.20;62.50;;;;;;5077261;28;20456;-75
2022/08/26 05:45:45;;;;;;;17.03;10.20;;;27.70;61.70;;;;;;5058611;28;20461;-76
2022/08/26 05:48:15;;;;;;;18.07;12.30;;;27.70;60.10;;;;;;5081253;28;20479;-76
2022/08/26 05:50:45;;;;;;;14.07;11.60;;;27.20;59.80;;;;;;5076739;28;20953;-75
2022/08/26 05:53:15;;;;;;;14.97;10.47;;;26.50;60.10;;;;;;5076281;28;20461;-77
2022/08/26 05:55:49;;;;;;;18.13;10.70;;;25.80;60.70;;;;;;5075561;28;20564;-78
2022/08/26 05:58:18;;;;;;;16.87;11.67;;;25.20;61.50;;;;;;5081432;28;21095;-78
2022/08/26 06:00:55;;;;;;;16.50;11.83;;;24.80;62.10;;;;;;5079295;28;20480;-78
2022/08/26 06:03:23;;;;;;;15.90;10.67;;;24.50;62.80;;;;;;5071180;28;20451;-77
2022/08/26 06:05:51;;;;;;;15.43;11.17;;;24.20;63.40;;;;;;5072600;28;20460;-77
2022/08/26 06:08:20;;;;;;;16.00;11.60;;;24.00;63.90;;;;;;5066816;28;21475;-77
2022/08/26 06:10:51;;;;;;;15.13;11.43;;;23.80;64.40;;;;;;5078001;28;20453;-78
2022/08/26 06:13:20;;;;;;;16.77;10.50;;;23.70;64.90;;;;;;5075929;28;20486;-78
2022/08/26 06:15:50;;;;;;;16.23;11.50;;;23.60;65.30;;;;;;5076313;28;20459;-78
2022/08/26 06:18:20;;;;;;;16.23;11.40;;;23.50;65.70;;;;;;5079357;28;20473;-77
2022/08/26 06:20:49;;;;;;;17.17;11.37;;;23.50;66.10;;;;;;5079336;28;20951;-76
2022/08/26 06:26:13;;;;;;;19.67;11.50;;;23.40;66.60;;;;;;5075296;28;20442;-77
2022/08/26 06:28:42;;;;;;;20.57;13.30;;;23.50;67.00;;;;;;5077077;28;20467;-78
2022/08/26 06:31:13;;;;;;;19.30;12.60;;;23.50;67.20;;;;;;5075483;28;20985;-78
2022/08/26 06:33:41;;;;;;;13.77;11.23;;;23.50;67.40;;;;;;5076059;28;21087;-79
2022/08/26 06:36:09;;;;;;;17.20;11.17;;;23.50;67.60;;;;;;5081181;28;20959;-78
2022/08/26 06:38:37;;;;;;;18.57;11.83;;;23.50;67.80;;;;;;5060551;28;21145;-78
2022/08/26 06:41:09;;;;;;;15.73;11.00;;;23.50;67.90;;;;;;5063881;28;20606;-76
2022/08/26 06:43:38;;;;;;;18.60;11.50;;;23.60;68.10;;;;;;5082816;28;20456;-78
2022/08/26 06:46:08;;;;;;;16.50;10.67;;;23.60;68.20;;;;;;5077646;28;20464;-76
2022/08/26 06:48:38;;;;;;;13.80;9.80;;;23.70;68.30;;;;;;5076621;28;20459;-77
2022/08/26 06:51:09;;;;;;;16.67;11.10;;;23.70;68.40;;;;;;5076002;28;21196;-77
2022/08/26 06:53:38;;;;;;;20.30;11.13;;;23.80;68.40;;;;;;5060525;28;20920;-77
2022/08/26 06:56:09;;;;;;;18.57;11.00;;;23.80;68.40;;;;;;5074274;28;20507;-76
2022/08/26 06:58:40;;;;;;;15.03;11.03;;;23.80;68.50;;;;;;5068881;28;20512;-78
2022/08/26 07:01:15;;;;;;;14.40;9.90;;;23.90;68.50;;;;;;5060127;28;21136;-77
2022/08/26 07:03:45;;;;;;;12.40;9.27;;;23.90;68.50;;;;;;5076945;28;20552;-77
2022/08/26 07:06:14;;;;;;;13.80;9.30;;;24.00;68.50;;;;;;5077636;28;20462;-77
2022/08/26 07:08:43;;;;;;;17.60;10.30;;;24.00;68.50;;;;;;5075623;28;20446;-77
2022/08/26 07:11:13;;;;;;;15.27;10.00;;;24.00;68.50;;;;;;5078994;28;20478;-77
2022/08/26 07:13:42;;;;;;;15.77;9.70;;;24.10;68.50;;;;;;5077761;28;21024;-78
2022/08/26 07:16:12;;;;;;;17.30;11.20;;;24.10;68.50;;;;;;5077256;28;20438;-77
2022/08/26 07:18:42;;;;;;;14.43;9.90;;;24.20;68.50;;;;;;5058940;28;20534;-78
2022/08/26 07:21:14;;;;;;;18.03;10.03;;;24.20;68.50;;;;;;5077435;28;20467;-77
2022/08/26 07:23:42;;;;;;;18.07;10.83;;;24.30;68.50;;;;;;5091099;28;20463;-76
2022/08/26 07:26:15;;;;;;;14.27;9.77;;;24.30;68.50;;;;;;5081318;28;20452;-78
2022/08/26 07:28:45;;;;;;;21.77;10.70;;;24.40;68.50;;;;;;5078277;28;20832;-77
2022/08/26 07:31:15;;;;;;;14.37;10.27;;;24.40;68.50;;;;;;5078918;28;20494;-77
2022/08/26 07:33:44;;;;;;;14.50;9.60;;;24.50;68.40;;;;;;5075849;28;20513;-77
2022/08/26 07:36:15;;;;;;;14.27;10.30;;;24.50;68.30;;;;;;5078954;28;20488;-77
2022/08/26 07:38:45;;;;;;;17.53;11.20;;;24.60;68.30;;;;;;5080377;28;20447;-78
2022/08/26 07:41:16;;;;;;;14.63;9.63;;;24.60;68.20;;;;;;5078603;28;20491;-77
2022/08/26 07:43:47;;;;;;;16.57;9.37;;;24.60;68.20;;;;;;5065615;28;20516;-77
2022/08/26 07:46:18;;;;;;;15.23;9.80;;;24.70;68.20;;;;;;5082057;28;20484;-77
2022/08/26 07:48:55;;;;;;;15.50;11.17;;;24.70;68.20;;;;;;5079373;28;20534;-77
2022/08/26 07:51:23;;;;;;;14.20;9.73;;;24.70;68.30;;;;;;5058032;28;20474;-77
2022/08/26 07:53:53;;;;;;;22.67;10.80;;;24.70;68.20;;;;;;5076938;28;20540;-77
2022/08/26 07:56:21;;;;;;;15.90;9.87;;;24.80;68.20;;;;;;5077560;28;20448;-78
2022/08/26 07:58:52;;;;;;;18.87;10.70;;;24.80;68.20;;;;;;5077392;28;20513;-77
2022/08/26 08:01:20;;;;;;;18.30;10.73;;;24.90;68.20;;;;;;5078325;28;20451;-76
2022/08/26 08:03:50;;;;;;;18.07;9.80;;;24.90;68.20;;;;;;5071729;28;20811;-77
2022/08/26 08:06:18;;;;;;;17.63;10.70;;;25.00;68.10;;;;;;5079373;28;20854;-78
2022/08/26 08:08:46;;;;;;;23.07;11.10;;;25.00;68.10;;;;;;5066132;28;20469;-76
2022/08/26 08:11:19;;;;;;;18.27;9.60;;;25.10;68.10;;;;;;5076782;28;21006;-76
2022/08/26 08:13:48;;;;;;;21.03;10.40;;;25.10;68.00;;;;;;5076064;28;20548;-77
2022/08/26 08:16:24;;;;;;;19.10;10.70;;;25.20;67.90;;;;;;5075774;28;20483;-77
2022/08/26 08:18:53;;;;;;;16.97;10.17;;;25.20;67.90;;;;;;5080650;28;20450;-76
2022/08/26 08:21:23;;;;;;;18.57;9.70;;;25.30;67.90;;;;;;5078488;28;20482;-76
2022/08/26 08:23:52;;;;;;;14.30;9.97;;;25.30;67.80;;;;;;5077844;28;20446;-78
2022/08/26 08:26:20;;;;;;;17.00;11.13;;;25.40;67.80;;;;;;5074992;28;20455;-76
2022/08/26 08:28:48;;;;;;;19.83;10.73;;;25.40;67.70;;;;;;5063924;28;20838;-77
2022/08/26 08:31:20;;;;;;;18.40;10.03;;;25.50;67.70;;;;;;5080916;28;20481;-77
2022/08/26 08:34:10;;;;;;;20.43;11.80;;;25.60;67.70;;;;;;5080467;28;20814;-77
2022/08/26 08:36:38;;;;;;;18.57;11.63;;;25.60;67.70;;;;;;5076454;28;20477;-76
2022/08/26 08:39:06;;;;;;;22.53;12.07;;;25.70;67.70;;;;;;5072852;28;20452;-78
2022/08/26 08:41:48;;;;;;;20.93;10.87;;;25.70;67.70;;;;;;5074834;28;20496;-77
2022/08/26 08:44:19;;;;;;;14.90;9.77;;;25.80;67.60;;;;;;5073805;28;20454;-78
2022/08/26 08:46:54;;;;;;;22.53;11.07;;;25.90;67.50;;;;;;5073886;28;20463;-78
2022/08/26 08:49:26;;;;;;;17.40;11.63;;;25.90;67.30;;;;;;5070288;28;20455;-78
2022/08/26 08:52:01;;;;;;;18.10;10.50;;;26.00;67.30;;;;;;5072766;28;20488;-78
2022/08/26 08:54:32;;;;;;;23.80;11.13;;;26.00;67.30;;;;;;5072566;28;20493;-78
2022/08/26 08:57:06;;;;;;;19.30;10.20;;;26.10;67.20;;;;;;5074594;28;20500;-76
2022/08/26 08:59:36;;;;;;;20.87;10.50;;;26.10;67.10;;;;;;5079887;28;20539;-78
2022/08/26 09:02:17;;;;;;;17.90;10.30;;;26.20;67.00;;;;;;5082391;28;20446;-78
2022/08/26 09:05:03;;;;;;;21.17;11.10;;;26.20;66.90;;;;;;5078060;28;20517;-78
2022/08/26 09:07:35;;;;;;;19.00;11.00;;;26.30;66.80;;;;;;5082697;28;20474;-78
2022/08/26 09:10:26;;;;;;;22.63;11.97;;;26.40;66.70;;;;;;5083051;28;20454;-78
2022/08/26 09:12:54;;;;;;;20.30;9.90;;;26.40;66.70;;;;;;5083719;28;20458;-78
2022/08/26 09:15:26;;;;;;;16.50;9.10;;;26.50;66.60;;;;;;5083099;28;20461;-78
2022/08/26 09:18:08;;;;;;;24.50;11.30;;;26.50;66.50;;;;;;5083677;28;20495;-78
2022/08/26 09:20:46;;;;;;;19.73;11.20;;;26.60;66.40;;;;;;5080970;28;20486;-77
2022/08/26 09:23:43;;;;;;;16.27;9.90;;;26.60;66.40;;;;;;5080717;28;20495;-78
2022/08/26 09:26:18;;;;;;;20.70;10.10;;;26.70;66.20;;;;;;5078049;28;20490;-78
2022/08/26 09:28:49;;;;;;;24.37;10.63;;;26.80;66.20;;;;;;5073826;28;20476;-79
2022/08/26 09:31:22;;;;;;;16.57;9.67;;;26.90;65.90;;;;;;5070805;28;20473;-78
2022/08/26 09:34:11;;;;;;;29.27;10.40;;;27.00;65.80;;;;;;5072298;28;20949;-78
2022/08/26 09:36:48;;;;;;;23.70;10.50;;;27.10;65.50;;;;;;5078659;28;21391;-78
2022/08/26 09:39:29;;;;;;;17.93;9.40;;;27.10;65.40;;;;;;5068951;28;20453;-77
2022/08/26 09:42:07;;;;;;;18.80;9.73;;;27.20;65.20;;;;;;5078602;28;20460;-78
2022/08/26 09:44:54;;;;;;;19.43;9.53;;;27.30;65.00;;;;;;5079281;28;20538;-78
2022/08/26 09:47:28;;;;;;;16.10;9.93;;;27.40;64.90;;;;;;5077029;28;20494;-78
2022/08/26 09:50:04;;;;;;;17.60;10.70;;;27.40;64.60;;;;;;5073854;28;21233;-78
2022/08/26 09:52:38;;;;;;;22.47;10.03;;;27.50;64.20;;;;;;5082965;28;20579;-75
2022/08/26 09:55:13;;;;;;;20.70;10.07;;;27.50;64.30;;;;;;5069868;28;20499;-77
2022/08/26 09:57:48;;;;;;;21.13;10.63;;;27.60;64.10;;;;;;5087976;28;20484;-77
2022/08/26 10:00:28;;;;;;;19.93;10.33;;;27.60;63.80;;;;;;5075134;28;20457;-78
2022/08/26 10:02:56;;;;;;;22.23;10.83;;;27.60;63.70;;;;;;5073878;28;20459;-77
2022/08/26 10:05:41;;;;;;;18.77;10.87;;;27.70;63.70;;;;;;5076776;28;20501;-79
2022/08/26 10:08:24;;;;;;;18.87;10.60;;;27.70;63.60;;;;;;5075705;28;20472;-79
2022/08/26 10:10:54;;;;;;;15.87;10.43;;;27.70;63.60;;;;;;5072886;28;20479;-78
2022/08/26 10:13:26;;;;;;;13.77;9.07;;;27.80;63.50;;;;;;5069558;28;20487;-79
2022/08/26 10:16:03;;;;;;;16.53;9.97;;;27.90;62.90;;;;;;5071482;28;20522;-78
2022/08/26 10:18:36;;;;;;;19.80;10.17;;;28.00;62.70;;;;;;5054106;28;20492;-78
2022/08/26 10:21:09;;;;;;;20.20;9.03;;;28.00;62.30;;;;;;5081995;28;20459;-76
2022/08/26 10:23:43;;;;;;;16.90;8.87;;;28.10;61.80;;;;;;5063629;28;21095;-77
2022/08/26 10:26:16;;;;;;;19.40;9.50;;;28.20;61.70;;;;;;5078947;28;20449;-79
2022/08/26 10:28:49;;;;;;;18.67;9.00;;;28.20;61.40;;;;;;5056130;28;20452;-79
2022/08/26 10:31:25;;;;;;;13.40;8.83;;;28.30;61.30;;;;;;5075157;28;21035;-78
2022/08/26 10:33:55;;;;;;;19.50;10.27;;;28.30;61.10;;;;;;5077728;28;20461;-79
2022/08/26 10:39:43;;;;;;;15.97;9.43;;;28.40;61.00;;;;;;5079212;28;20475;-79
2022/08/26 10:42:19;;;;;;;20.47;10.03;;;28.40;60.80;;;;;;5074855;28;20442;-79
2022/08/26 10:44:49;;;;;;;19.03;10.80;;;28.40;60.60;;;;;;5073703;28;20540;-78
2022/08/26 10:47:21;;;;;;;17.27;9.93;;;28.30;60.50;;;;;;5060814;28;20487;-77
2022/08/26 10:49:50;;;;;;;16.93;9.90;;;28.30;60.60;;;;;;5074485;28;20460;-79
2022/08/26 10:52:23;;;;;;;20.73;10.17;;;28.30;60.40;;;;;;5071222;28;20532;-79
2022/08/26 10:55:04;;;;;;;13.67;9.07;;;28.30;60.40;;;;;;5066221;28;20459;-77
2022/08/26 10:57:47;;;;;;;16.30;10.03;;;28.30;60.40;;;;;;5077267;28;20483;-78
2022/08/26 11:03:13;;;;;;;17.90;9.20;;;28.20;60.50;;;;;;5077117;28;20455;-79
2022/08/26 11:06:19;;;;;;;14.20;9.20;;;28.20;60.40;;;;;;5079275;28;20471;-79
2022/08/26 11:08:49;;;;;;;23.93;9.80;;;28.20;60.40;;;;;;5080393;28;20454;-79
2022/08/26 11:11:46;;;;;;;15.33;8.83;;;28.20;60.40;;;;;;5079359;28;20450;-78
2022/08/26 11:14:37;;;;;;;19.17;9.13;;;28.20;60.30;;;;;;5079926;28;20573;-78
2022/08/26 11:17:55;;;;;;;21.10;9.97;;;28.20;60.20;;;;;;5077569;28;20827;-76
2022/08/26 11:20:35;;;;;;;12.17;8.50;;;28.20;60.10;;;;;;5078285;28;20463;-79
2022/08/26 11:23:45;;;;;;;17.63;10.10;;;28.20;60.10;;;;;;5076139;28;20467;-79
2022/08/26 11:26:19;;;;;;;14.97;8.50;;;28.20;60.00;;;;;;5076994;28;20452;-77
2022/08/26 11:29:11;;;;;;;14.77;7.93;;;28.20;60.00;;;;;;5073101;28;20491;-77
2022/08/26 11:31:55;;;;;;;15.33;8.60;;;28.20;60.00;;;;;;5072562;28;20519;-76
2022/08/26 11:34:50;;;;;;;15.10;9.50;;;28.30;59.70;;;;;;5078251;28;20445;-77
2022/08/26 11:37:18;;;;;;;15.47;9.70;;;28.30;59.70;;;;;;5074655;28;20488;-78
2022/08/26 11:39:54;;;;;;;14.33;8.50;;;28.30;59.80;;;;;;5074171;28;20460;-78
2022/08/26 11:42:31;;;;;;;14.93;8.23;;;28.30;59.90;;;;;;5075258;28;20457;-78
2022/08/26 11:45:03;;;;;;;13.57;8.93;;;28.40;59.80;;;;;;5076136;28;20445;-78
2022/08/26 11:47:32;;;;;;;16.43;9.40;;;28.40;59.90;;;;;;5072611;28;20481;-78
2022/08/26 11:50:13;;;;;;;19.30;9.73;;;28.40;60.00;;;;;;5080212;28;21004;-78
2022/08/26 11:52:41;;;;;;;18.17;10.50;;;28.40;60.00;;;;;;5074666;28;20479;-78
2022/08/26 11:55:11;;;;;;;14.67;8.87;;;28.50;60.10;;;;;;5074877;28;20460;-79
2022/08/26 11:57:44;;;;;;;19.87;8.60;;;28.60;60.20;;;;;;5076447;28;20474;-79
2022/08/26 12:00:20;;;;;;;15.50;9.33;;;28.70;60.20;;;;;;5079672;28;20467;-77
2022/08/26 12:02:50;;;;;;;14.20;7.90;;;28.90;60.10;;;;;;5075447;28;20501;-78
2022/08/26 12:05:26;;;;;;;17.67;8.93;;;29.00;59.90;;;;;;5071686;28;20455;-77
2022/08/26 12:08:01;;;;;;;15.80;7.97;;;29.00;59.40;;;;;;5078325;28;20516;-79
2022/08/26 12:10:33;;;;;;;11.60;7.90;;;28.90;59.00;;;;;;5074962;28;20447;-77
2022/08/26 12:13:03;;;;;;;12.00;7.30;;;28.80;58.90;;;;;;5058396;28;21081;-77
2022/08/26 12:15:35;;;;;;;15.40;8.17;;;28.70;58.90;;;;;;5071140;28;20451;-76
2022/08/26 12:18:21;;;;;;;11.60;7.40;;;28.50;58.90;;;;;;5072938;28;20472;-79
2022/08/26 12:20:59;;;;;;;13.70;7.27;;;28.40;58.90;;;;;;5073075;28;20459;-79
2022/08/26 12:23:38;;;;;;;14.93;7.90;;;28.30;59.20;;;;;;5070715;28;20473;-78
2022/08/26 12:26:10;;;;;;;14.30;8.07;;;28.20;59.50;;;;;;5069784;28;20524;-76
2022/08/26 12:28:43;;;;;;;15.43;7.50;;;28.10;59.70;;;;;;5070543;28;21181;-80
2022/08/26 12:31:22;;;;;;;14.17;8.93;;;28.10;59.90;;;;;;5075414;28;20451;-78
2022/08/26 12:33:50;;;;;;;14.17;8.70;;;28.00;60.20;;;;;;5072278;28;20500;-78
2022/08/26 12:36:23;;;;;;;14.03;8.63;;;27.90;60.30;;;;;;5070763;28;20451;-78
2022/08/26 12:38:51;;;;;;;13.33;8.60;;;27.90;60.50;;;;;;5075455;28;20450;-77
2022/08/26 12:41:43;;;;;;;14.07;7.80;;;27.90;60.70;;;;;;5070520;28;20447;-79
2022/08/26 12:44:32;;;;;;;15.97;7.70;;;27.80;60.80;;;;;;5077927;28;21163;-79
2022/08/26 12:47:09;;;;;;;10.90;7.37;;;27.80;61.00;;;;;;5078007;28;20485;-78
2022/08/26 12:49:39;;;;;;;11.27;7.23;;;27.80;61.10;;;;;;5072129;28;20452;-78
2022/08/26 12:52:28;;;;;;;12.37;8.13;;;27.80;61.20;;;;;;5072444;28;20456;-78
2022/08/26 12:54:58;;;;;;;13.53;7.90;;;27.70;61.30;;;;;;5077341;28;20961;-77
2022/08/26 12:57:30;;;;;;;19.63;8.40;;;27.80;61.40;;;;;;5074594;28;20492;-78
2022/08/26 13:00:30;;;;;;;13.03;8.17;;;27.80;61.50;;;;;;5071735;28;20459;-79
2022/08/26 13:03:00;;;;;;;16.20;7.43;;;27.80;61.60;;;;;;5074570;28;20469;-79
2022/08/26 13:05:32;;;;;;;14.40;7.80;;;27.80;62.00;;;;;;5070867;28;20465;-78
2022/08/26 13:08:15;;;;;;;19.00;8.40;;;27.70;62.10;;;;;;5072894;28;20953;-78